Portada
METAR-TAF:

METAR-TAF

Aeroports :

Caiena, Guaiana Francesa

latitud: 04-50N, longitud: 052-22W, altitud: 105 m

Observació

L'informe es va fer fa 33 minuts, a les 01:00 UTC
Vent 2 kt del Sud-Oest
Temperatura 24°C
Humitat 89%
Pressió 1009 hPa
Visibilitat 10 km o més
sense núvols per sota de 1500 mi sense presència de cumulonimbus.

METAR: SOCA 160100Z AUTO 22002KT CAVOK 24/22 Q1009 NOSIG

Hora: 22:33 (01:33 UTC)

Pronòstic

L'informe es va fer fa 3 hores i 33 minuts, a les 22:00 UTC
Pronòstic vàlid del 16 a les 00 UTC al 16 a les 24 UTC
Vent 2 kt amb direcció variable
Visibilitat 10 km o més
Escasses núvols a una alçada de 2000 ft
A partir de les 16 a les 1400 UTC
Vent 10 kt del Est
Visibilitat 10 km o més
Núvols disperses a una alçada de 2600 ft
Probabilitat 40% :
Temporalment
l' 16 a les 15 UTC al 16 a les 18 UTC
xàfecs de pluja

TAF: SOCA 152200Z 1600/1624 VRB02KT 9999 FEW020 FM161400 08010KT 9999 SCT026 PROB40 TEMPO 1615/1618 SHRA

Observacions i pronòstics meteorològics de més de 4000 aeroports (METAR i TAF).

Les estacions disponibles són els punts grocs i vermells al mapa.

Posi el ratolí al punt desitjat per veure el nom de l'estació.

Feu clic per veure les observacions i els pronòstics meteorològics.

Per canviar el mapa: feu clic els botons verds amb una creu de color negre per apropar; al botó verd amb un guió per allunyar la imatge; o en les fletxes verdes per a mapes adjacents.


METAR-TAF: